sensor_id;sensor_type;location;lat;lon;timestamp;P1;durP1;ratioP1;P2;durP2;ratioP2
7795;SDS011;3942;51.518;6.912;2023-04-05T00:04:32;14.60;;;7.63;;
7795;SDS011;3942;51.518;6.912;2023-04-05T00:09:35;14.90;;;7.25;;
7795;SDS011;3942;51.518;6.912;2023-04-05T00:14:38;10.82;;;6.03;;
7795;SDS011;3942;51.518;6.912;2023-04-05T00:19:40;13.07;;;6.20;;
7795;SDS011;3942;51.518;6.912;2023-04-05T00:24:44;12.98;;;6.63;;
7795;SDS011;3942;51.518;6.912;2023-04-05T00:29:47;15.63;;;7.03;;
7795;SDS011;3942;51.518;6.912;2023-04-05T00:34:49;13.88;;;6.50;;
7795;SDS011;3942;51.518;6.912;2023-04-05T00:39:51;10.20;;;6.10;;
7795;SDS011;3942;51.518;6.912;2023-04-05T00:44:55;12.80;;;6.10;;
7795;SDS011;3942;51.518;6.912;2023-04-05T00:49:57;10.05;;;5.47;;
7795;SDS011;3942;51.518;6.912;2023-04-05T00:55:00;10.15;;;5.85;;
7795;SDS011;3942;51.518;6.912;2023-04-05T01:00:04;9.60;;;5.55;;
7795;SDS011;3942;51.518;6.912;2023-04-05T01:05:13;13.48;;;5.40;;
7795;SDS011;3942;51.518;6.912;2023-04-05T01:10:16;12.52;;;5.72;;
7795;SDS011;3942;51.518;6.912;2023-04-05T01:15:20;12.25;;;6.35;;
7795;SDS011;3942;51.518;6.912;2023-04-05T01:20:22;10.85;;;5.88;;
7795;SDS011;3942;51.518;6.912;2023-04-05T01:25:36;12.10;;;6.15;;
7795;SDS011;3942;51.518;6.912;2023-04-05T01:30:53;13.05;;;6.35;;
7795;SDS011;3942;51.518;6.912;2023-04-05T01:36:05;13.98;;;6.00;;
7795;SDS011;3942;51.518;6.912;2023-04-05T01:41:11;13.93;;;6.55;;
7795;SDS011;3942;51.518;6.912;2023-04-05T01:46:15;13.38;;;7.10;;
7795;SDS011;3942;51.518;6.912;2023-04-05T01:51:17;10.57;;;5.95;;
7795;SDS011;3942;51.518;6.912;2023-04-05T01:56:20;14.02;;;5.93;;
7795;SDS011;3942;51.518;6.912;2023-04-05T02:01:23;12.70;;;5.93;;
7795;SDS011;3942;51.518;6.912;2023-04-05T02:06:25;13.50;;;6.20;;
7795;SDS011;3942;51.518;6.912;2023-04-05T02:11:27;11.80;;;5.32;;
7795;SDS011;3942;51.518;6.912;2023-04-05T02:16:30;16.25;;;6.30;;
7795;SDS011;3942;51.518;6.912;2023-04-05T02:21:32;12.18;;;5.53;;
7795;SDS011;3942;51.518;6.912;2023-04-05T02:26:35;11.77;;;4.93;;
7795;SDS011;3942;51.518;6.912;2023-04-05T02:31:39;8.70;;;5.57;;
7795;SDS011;3942;51.518;6.912;2023-04-05T02:36:41;12.45;;;5.68;;
7795;SDS011;3942;51.518;6.912;2023-04-05T02:41:43;11.25;;;6.25;;
7795;SDS011;3942;51.518;6.912;2023-04-05T02:46:47;12.52;;;5.38;;
7795;SDS011;3942;51.518;6.912;2023-04-05T02:51:48;9.15;;;6.00;;
7795;SDS011;3942;51.518;6.912;2023-04-05T02:56:51;10.75;;;5.43;;
7795;SDS011;3942;51.518;6.912;2023-04-05T03:01:55;12.13;;;7.13;;
7795;SDS011;3942;51.518;6.912;2023-04-05T03:06:57;9.75;;;6.25;;
7795;SDS011;3942;51.518;6.912;2023-04-05T03:11:59;15.98;;;7.43;;
7795;SDS011;3942;51.518;6.912;2023-04-05T03:17:03;11.40;;;6.40;;
7795;SDS011;3942;51.518;6.912;2023-04-05T03:22:06;11.05;;;6.63;;
7795;SDS011;3942;51.518;6.912;2023-04-05T03:27:08;13.57;;;6.72;;
7795;SDS011;3942;51.518;6.912;2023-04-05T03:32:11;11.23;;;6.35;;
7795;SDS011;3942;51.518;6.912;2023-04-05T03:37:14;12.60;;;6.85;;
7795;SDS011;3942;51.518;6.912;2023-04-05T03:42:16;15.10;;;6.88;;
7795;SDS011;3942;51.518;6.912;2023-04-05T03:47:19;11.60;;;7.07;;
7795;SDS011;3942;51.518;6.912;2023-04-05T03:52:22;12.10;;;6.90;;
7795;SDS011;3942;51.518;6.912;2023-04-05T03:57:24;14.57;;;7.55;;
7795;SDS011;3942;51.518;6.912;2023-04-05T04:02:29;13.77;;;7.38;;
7795;SDS011;3942;51.518;6.912;2023-04-05T04:07:31;11.63;;;6.43;;
7795;SDS011;3942;51.518;6.912;2023-04-05T04:12:33;18.85;;;8.15;;
7795;SDS011;3942;51.518;6.912;2023-04-05T04:17:36;12.35;;;6.63;;
7795;SDS011;3942;51.518;6.912;2023-04-05T04:22:39;11.73;;;6.13;;
7795;SDS011;3942;51.518;6.912;2023-04-05T04:27:41;14.20;;;7.22;;
7795;SDS011;3942;51.518;6.912;2023-04-05T04:32:47;13.73;;;6.90;;
7795;SDS011;3942;51.518;6.912;2023-04-05T04:37:55;11.90;;;6.80;;
7795;SDS011;3942;51.518;6.912;2023-04-05T04:42:58;16.13;;;7.93;;
7795;SDS011;3942;51.518;6.912;2023-04-05T04:48:02;14.10;;;7.38;;
7795;SDS011;3942;51.518;6.912;2023-04-05T04:53:04;13.43;;;7.00;;
7795;SDS011;3942;51.518;6.912;2023-04-05T04:58:07;13.10;;;7.80;;
7795;SDS011;3942;51.518;6.912;2023-04-05T05:03:12;11.23;;;6.97;;
7795;SDS011;3942;51.518;6.912;2023-04-05T05:08:14;13.55;;;7.20;;
7795;SDS011;3942;51.518;6.912;2023-04-05T05:13:16;14.50;;;7.63;;
7795;SDS011;3942;51.518;6.912;2023-04-05T05:18:19;14.65;;;7.88;;
7795;SDS011;3942;51.518;6.912;2023-04-05T05:23:21;14.45;;;6.63;;
7795;SDS011;3942;51.518;6.912;2023-04-05T05:28:23;13.60;;;8.70;;
7795;SDS011;3942;51.518;6.912;2023-04-05T05:33:27;16.65;;;8.88;;
7795;SDS011;3942;51.518;6.912;2023-04-05T05:38:29;13.98;;;7.45;;
7795;SDS011;3942;51.518;6.912;2023-04-05T05:43:31;15.60;;;8.48;;
7795;SDS011;3942;51.518;6.912;2023-04-05T05:48:35;14.18;;;9.50;;
7795;SDS011;3942;51.518;6.912;2023-04-05T05:53:37;19.40;;;9.48;;
7795;SDS011;3942;51.518;6.912;2023-04-05T05:58:39;16.77;;;9.70;;
7795;SDS011;3942;51.518;6.912;2023-04-05T06:03:43;15.40;;;8.48;;
7795;SDS011;3942;51.518;6.912;2023-04-05T06:08:45;13.68;;;8.82;;
7795;SDS011;3942;51.518;6.912;2023-04-05T06:13:48;14.70;;;9.18;;
7795;SDS011;3942;51.518;6.912;2023-04-05T06:18:52;16.40;;;9.55;;
7795;SDS011;3942;51.518;6.912;2023-04-05T06:23:55;25.50;;;12.18;;
7795;SDS011;3942;51.518;6.912;2023-04-05T06:28:57;19.88;;;10.00;;
7795;SDS011;3942;51.518;6.912;2023-04-05T06:34:01;17.35;;;11.07;;
7795;SDS011;3942;51.518;6.912;2023-04-05T06:39:03;20.58;;;9.57;;
7795;SDS011;3942;51.518;6.912;2023-04-05T06:44:06;17.80;;;9.45;;
7795;SDS011;3942;51.518;6.912;2023-04-05T06:49:09;18.92;;;9.90;;
7795;SDS011;3942;51.518;6.912;2023-04-05T06:54:11;19.50;;;9.57;;
7795;SDS011;3942;51.518;6.912;2023-04-05T06:59:14;21.33;;;9.52;;
7795;SDS011;3942;51.518;6.912;2023-04-05T07:04:17;17.48;;;9.95;;
7795;SDS011;3942;51.518;6.912;2023-04-05T07:09:19;19.90;;;9.40;;
7795;SDS011;3942;51.518;6.912;2023-04-05T07:14:24;16.45;;;9.52;;
7795;SDS011;3942;51.518;6.912;2023-04-05T07:19:27;20.15;;;10.38;;
7795;SDS011;3942;51.518;6.912;2023-04-05T07:24:30;16.55;;;9.95;;
7795;SDS011;3942;51.518;6.912;2023-04-05T07:29:32;15.13;;;9.40;;
7795;SDS011;3942;51.518;6.912;2023-04-05T07:34:40;20.70;;;11.45;;
7795;SDS011;3942;51.518;6.912;2023-04-05T07:39:43;15.50;;;9.27;;
7795;SDS011;3942;51.518;6.912;2023-04-05T07:44:45;19.75;;;9.35;;
7795;SDS011;3942;51.518;6.912;2023-04-05T07:49:48;22.73;;;10.10;;
7795;SDS011;3942;51.518;6.912;2023-04-05T07:54:50;15.57;;;8.18;;
7795;SDS011;3942;51.518;6.912;2023-04-05T07:59:53;18.40;;;8.65;;
7795;SDS011;3942;51.518;6.912;2023-04-05T08:04:57;15.07;;;8.20;;
7795;SDS011;3942;51.518;6.912;2023-04-05T08:09:59;16.42;;;9.10;;
7795;SDS011;3942;51.518;6.912;2023-04-05T08:15:02;13.35;;;7.65;;
7795;SDS011;3942;51.518;6.912;2023-04-05T08:20:06;12.13;;;7.45;;
7795;SDS011;3942;51.518;6.912;2023-04-05T08:25:08;11.65;;;7.25;;
7795;SDS011;3942;51.518;6.912;2023-04-05T08:30:10;12.00;;;7.72;;
7795;SDS011;3942;51.518;6.912;2023-04-05T08:35:14;15.15;;;7.93;;
7795;SDS011;3942;51.518;6.912;2023-04-05T08:40:16;11.43;;;6.82;;
7795;SDS011;3942;51.518;6.912;2023-04-05T08:45:19;13.10;;;6.28;;
7795;SDS011;3942;51.518;6.912;2023-04-05T08:50:22;13.38;;;7.78;;
7795;SDS011;3942;51.518;6.912;2023-04-05T08:55:27;16.92;;;7.97;;
7795;SDS011;3942;51.518;6.912;2023-04-05T09:00:29;10.98;;;7.68;;
7795;SDS011;3942;51.518;6.912;2023-04-05T09:05:33;16.27;;;7.53;;
7795;SDS011;3942;51.518;6.912;2023-04-05T09:15:44;10.32;;;6.78;;
7795;SDS011;3942;51.518;6.912;2023-04-05T09:20:47;10.55;;;5.75;;
7795;SDS011;3942;51.518;6.912;2023-04-05T09:25:48;10.00;;;5.40;;
7795;SDS011;3942;51.518;6.912;2023-04-05T09:30:53;10.65;;;5.85;;
7795;SDS011;3942;51.518;6.912;2023-04-05T09:35:55;8.90;;;5.82;;
7795;SDS011;3942;51.518;6.912;2023-04-05T09:40:57;8.70;;;5.53;;
7795;SDS011;3942;51.518;6.912;2023-04-05T09:46:00;12.18;;;6.00;;
7795;SDS011;3942;51.518;6.912;2023-04-05T09:51:03;10.20;;;6.72;;
7795;SDS011;3942;51.518;6.912;2023-04-05T09:56:07;10.98;;;6.60;;
7795;SDS011;3942;51.518;6.912;2023-04-05T10:01:12;9.75;;;5.65;;
7795;SDS011;3942;51.518;6.912;2023-04-05T10:06:15;24.20;;;13.40;;
7795;SDS011;3942;51.518;6.912;2023-04-05T10:11:17;11.80;;;6.68;;
7795;SDS011;3942;51.518;6.912;2023-04-05T10:16:22;9.50;;;5.95;;
7795;SDS011;3942;51.518;6.912;2023-04-05T10:21:27;9.63;;;5.07;;
7795;SDS011;3942;51.518;6.912;2023-04-05T10:26:35;10.63;;;5.85;;
7795;SDS011;3942;51.518;6.912;2023-04-05T10:31:41;12.15;;;6.20;;
7795;SDS011;3942;51.518;6.912;2023-04-05T10:36:53;10.18;;;5.38;;
7795;SDS011;3942;51.518;6.912;2023-04-05T10:41:59;8.98;;;5.30;;
7795;SDS011;3942;51.518;6.912;2023-04-05T10:47:03;10.10;;;5.72;;
7795;SDS011;3942;51.518;6.912;2023-04-05T10:52:06;11.10;;;6.65;;
7795;SDS011;3942;51.518;6.912;2023-04-05T10:57:08;9.25;;;5.97;;
7795;SDS011;3942;51.518;6.912;2023-04-05T11:02:12;12.23;;;4.95;;
7795;SDS011;3942;51.518;6.912;2023-04-05T11:07:14;10.10;;;5.10;;
7795;SDS011;3942;51.518;6.912;2023-04-05T11:12:17;8.65;;;5.63;;
7795;SDS011;3942;51.518;6.912;2023-04-05T11:17:24;12.95;;;6.30;;
7795;SDS011;3942;51.518;6.912;2023-04-05T11:22:27;8.23;;;5.53;;
7795;SDS011;3942;51.518;6.912;2023-04-05T11:27:30;8.43;;;5.30;;
7795;SDS011;3942;51.518;6.912;2023-04-05T11:32:38;9.75;;;5.95;;
7795;SDS011;3942;51.518;6.912;2023-04-05T11:37:55;9.60;;;5.50;;
7795;SDS011;3942;51.518;6.912;2023-04-05T11:43:01;9.07;;;4.97;;
7795;SDS011;3942;51.518;6.912;2023-04-05T11:48:06;9.10;;;5.30;;
7795;SDS011;3942;51.518;6.912;2023-04-05T11:53:10;15.80;;;7.28;;
7795;SDS011;3942;51.518;6.912;2023-04-05T11:58:13;10.23;;;5.07;;
7795;SDS011;3942;51.518;6.912;2023-04-05T12:03:17;9.32;;;5.10;;
7795;SDS011;3942;51.518;6.912;2023-04-05T12:08:19;11.27;;;4.57;;
7795;SDS011;3942;51.518;6.912;2023-04-05T12:13:25;9.55;;;4.82;;
7795;SDS011;3942;51.518;6.912;2023-04-05T12:18:30;7.35;;;4.53;;
7795;SDS011;3942;51.518;6.912;2023-04-05T12:23:33;7.32;;;4.50;;
7795;SDS011;3942;51.518;6.912;2023-04-05T12:28:48;12.05;;;5.78;;
7795;SDS011;3942;51.518;6.912;2023-04-05T12:33:52;11.18;;;5.35;;
7795;SDS011;3942;51.518;6.912;2023-04-05T12:38:59;12.27;;;5.65;;
7795;SDS011;3942;51.518;6.912;2023-04-05T12:44:03;8.02;;;5.22;;
7795;SDS011;3942;51.518;6.912;2023-04-05T12:49:07;8.60;;;5.75;;
7795;SDS011;3942;51.518;6.912;2023-04-05T12:54:11;8.40;;;4.55;;
7795;SDS011;3942;51.518;6.912;2023-04-05T12:59:14;7.40;;;4.95;;
7795;SDS011;3942;51.518;6.912;2023-04-05T13:04:17;8.07;;;4.75;;
7795;SDS011;3942;51.518;6.912;2023-04-05T13:09:19;14.60;;;5.93;;
7795;SDS011;3942;51.518;6.912;2023-04-05T13:14:21;10.02;;;5.20;;
7795;SDS011;3942;51.518;6.912;2023-04-05T13:19:24;8.50;;;5.47;;
7795;SDS011;3942;51.518;6.912;2023-04-05T13:24:26;8.75;;;5.13;;
7795;SDS011;3942;51.518;6.912;2023-04-05T13:29:28;11.73;;;5.20;;
7795;SDS011;3942;51.518;6.912;2023-04-05T13:34:32;8.50;;;5.07;;
7795;SDS011;3942;51.518;6.912;2023-04-05T13:39:34;7.07;;;4.93;;
7795;SDS011;3942;51.518;6.912;2023-04-05T13:44:36;8.45;;;5.05;;
7795;SDS011;3942;51.518;6.912;2023-04-05T13:49:39;7.05;;;3.80;;
7795;SDS011;3942;51.518;6.912;2023-04-05T13:54:41;8.18;;;5.72;;
7795;SDS011;3942;51.518;6.912;2023-04-05T13:59:43;10.23;;;5.40;;
7795;SDS011;3942;51.518;6.912;2023-04-05T14:04:47;11.25;;;6.07;;
7795;SDS011;3942;51.518;6.912;2023-04-05T14:09:49;9.77;;;5.75;;
7795;SDS011;3942;51.518;6.912;2023-04-05T14:14:51;8.75;;;5.28;;
7795;SDS011;3942;51.518;6.912;2023-04-05T14:19:54;6.45;;;4.57;;
7795;SDS011;3942;51.518;6.912;2023-04-05T14:24:56;8.68;;;4.85;;
7795;SDS011;3942;51.518;6.912;2023-04-05T14:29:58;10.07;;;5.68;;
7795;SDS011;3942;51.518;6.912;2023-04-05T14:35:02;10.18;;;5.40;;
7795;SDS011;3942;51.518;6.912;2023-04-05T14:40:05;14.00;;;5.45;;
7795;SDS011;3942;51.518;6.912;2023-04-05T14:45:08;8.35;;;5.20;;
7795;SDS011;3942;51.518;6.912;2023-04-05T14:50:12;7.22;;;4.93;;
7795;SDS011;3942;51.518;6.912;2023-04-05T14:55:14;12.65;;;6.47;;
7795;SDS011;3942;51.518;6.912;2023-04-05T15:00:16;7.63;;;5.50;;
7795;SDS011;3942;51.518;6.912;2023-04-05T15:05:20;10.85;;;5.90;;
7795;SDS011;3942;51.518;6.912;2023-04-05T15:10:22;10.82;;;5.78;;
7795;SDS011;3942;51.518;6.912;2023-04-05T15:15:24;10.20;;;6.07;;
7795;SDS011;3942;51.518;6.912;2023-04-05T15:20:27;9.07;;;5.20;;
7795;SDS011;3942;51.518;6.912;2023-04-05T15:25:30;7.72;;;4.75;;
7795;SDS011;3942;51.518;6.912;2023-04-05T15:30:32;8.90;;;5.40;;
7795;SDS011;3942;51.518;6.912;2023-04-05T15:35:35;11.43;;;5.18;;
7795;SDS011;3942;51.518;6.912;2023-04-05T15:40:37;9.07;;;4.72;;
7795;SDS011;3942;51.518;6.912;2023-04-05T15:45:40;11.48;;;6.28;;
7795;SDS011;3942;51.518;6.912;2023-04-05T15:50:43;8.98;;;5.18;;
7795;SDS011;3942;51.518;6.912;2023-04-05T15:55:45;9.35;;;5.28;;
7795;SDS011;3942;51.518;6.912;2023-04-05T16:00:48;8.75;;;5.47;;
7795;SDS011;3942;51.518;6.912;2023-04-05T16:05:51;9.35;;;5.65;;
7795;SDS011;3942;51.518;6.912;2023-04-05T16:10:54;10.45;;;4.80;;
7795;SDS011;3942;51.518;6.912;2023-04-05T16:15:56;10.85;;;6.70;;
7795;SDS011;3942;51.518;6.912;2023-04-05T16:21:00;7.65;;;5.05;;
7795;SDS011;3942;51.518;6.912;2023-04-05T16:26:02;8.65;;;5.80;;
7795;SDS011;3942;51.518;6.912;2023-04-05T16:31:04;26.27;;;14.90;;
7795;SDS011;3942;51.518;6.912;2023-04-05T16:36:08;12.73;;;6.07;;
7795;SDS011;3942;51.518;6.912;2023-04-05T16:41:10;7.88;;;5.13;;
7795;SDS011;3942;51.518;6.912;2023-04-05T16:46:12;11.48;;;6.68;;
7795;SDS011;3942;51.518;6.912;2023-04-05T16:51:16;9.55;;;5.57;;
7795;SDS011;3942;51.518;6.912;2023-04-05T16:56:18;16.75;;;10.65;;
7795;SDS011;3942;51.518;6.912;2023-04-05T17:01:21;13.93;;;6.70;;
7795;SDS011;3942;51.518;6.912;2023-04-05T17:06:25;13.10;;;4.95;;
7795;SDS011;3942;51.518;6.912;2023-04-05T17:11:28;8.50;;;5.18;;
7795;SDS011;3942;51.518;6.912;2023-04-05T17:16:30;9.40;;;5.13;;
7795;SDS011;3942;51.518;6.912;2023-04-05T17:21:34;9.88;;;5.47;;
7795;SDS011;3942;51.518;6.912;2023-04-05T17:26:36;12.80;;;6.25;;
7795;SDS011;3942;51.518;6.912;2023-04-05T17:31:38;19.83;;;7.00;;
7795;SDS011;3942;51.518;6.912;2023-04-05T17:36:44;14.32;;;6.53;;
7795;SDS011;3942;51.518;6.912;2023-04-05T17:41:46;12.18;;;6.13;;
7795;SDS011;3942;51.518;6.912;2023-04-05T17:46:49;23.73;;;10.45;;
7795;SDS011;3942;51.518;6.912;2023-04-05T17:51:53;9.05;;;5.47;;
7795;SDS011;3942;51.518;6.912;2023-04-05T17:56:55;13.38;;;6.00;;
7795;SDS011;3942;51.518;6.912;2023-04-05T18:01:58;13.00;;;7.28;;
7795;SDS011;3942;51.518;6.912;2023-04-05T18:07:01;12.75;;;6.45;;
7795;SDS011;3942;51.518;6.912;2023-04-05T18:12:04;17.92;;;10.02;;
7795;SDS011;3942;51.518;6.912;2023-04-05T18:17:06;20.33;;;10.80;;
7795;SDS011;3942;51.518;6.912;2023-04-05T18:22:09;50.72;;;27.83;;
7795;SDS011;3942;51.518;6.912;2023-04-05T18:27:11;29.30;;;17.85;;
7795;SDS011;3942;51.518;6.912;2023-04-05T18:32:14;16.70;;;9.45;;
7795;SDS011;3942;51.518;6.912;2023-04-05T18:37:18;33.70;;;18.92;;
7795;SDS011;3942;51.518;6.912;2023-04-05T18:42:20;14.23;;;8.00;;
7795;SDS011;3942;51.518;6.912;2023-04-05T18:47:22;11.43;;;5.93;;
7795;SDS011;3942;51.518;6.912;2023-04-05T18:52:26;10.23;;;5.13;;
7795;SDS011;3942;51.518;6.912;2023-04-05T18:57:33;11.07;;;5.15;;
7795;SDS011;3942;51.518;6.912;2023-04-05T19:02:35;8.30;;;4.75;;
7795;SDS011;3942;51.518;6.912;2023-04-05T19:07:38;8.82;;;5.03;;
7795;SDS011;3942;51.518;6.912;2023-04-05T19:12:41;8.20;;;4.97;;
7795;SDS011;3942;51.518;6.912;2023-04-05T19:17:43;9.68;;;4.90;;
7795;SDS011;3942;51.518;6.912;2023-04-05T19:22:46;10.40;;;5.25;;
7795;SDS011;3942;51.518;6.912;2023-04-05T19:27:49;8.48;;;5.35;;
7795;SDS011;3942;51.518;6.912;2023-04-05T19:32:51;7.63;;;5.63;;
7795;SDS011;3942;51.518;6.912;2023-04-05T19:37:55;12.20;;;7.45;;
7795;SDS011;3942;51.518;6.912;2023-04-05T19:42:58;13.65;;;6.07;;
7795;SDS011;3942;51.518;6.912;2023-04-05T19:48:01;18.17;;;12.07;;
7795;SDS011;3942;51.518;6.912;2023-04-05T19:53:05;9.50;;;5.82;;
7795;SDS011;3942;51.518;6.912;2023-04-05T19:58:08;9.52;;;6.20;;
7795;SDS011;3942;51.518;6.912;2023-04-05T20:03:20;12.45;;;7.43;;
7795;SDS011;3942;51.518;6.912;2023-04-05T20:08:25;14.15;;;8.57;;
7795;SDS011;3942;51.518;6.912;2023-04-05T20:13:27;17.70;;;9.60;;
7795;SDS011;3942;51.518;6.912;2023-04-05T20:18:29;16.38;;;7.38;;
7795;SDS011;3942;51.518;6.912;2023-04-05T20:23:32;13.02;;;7.45;;
7795;SDS011;3942;51.518;6.912;2023-04-05T20:28:37;16.10;;;8.45;;
7795;SDS011;3942;51.518;6.912;2023-04-05T20:33:44;11.35;;;6.80;;
7795;SDS011;3942;51.518;6.912;2023-04-05T20:38:48;12.80;;;8.95;;
7795;SDS011;3942;51.518;6.912;2023-04-05T20:43:51;26.83;;;12.63;;
7795;SDS011;3942;51.518;6.912;2023-04-05T20:48:55;21.17;;;12.35;;
7795;SDS011;3942;51.518;6.912;2023-04-05T20:53:58;26.95;;;13.32;;
7795;SDS011;3942;51.518;6.912;2023-04-05T20:59:01;18.77;;;9.95;;
7795;SDS011;3942;51.518;6.912;2023-04-05T21:04:03;18.67;;;10.32;;
7795;SDS011;3942;51.518;6.912;2023-04-05T21:09:07;18.13;;;10.00;;
7795;SDS011;3942;51.518;6.912;2023-04-05T21:14:09;18.10;;;11.38;;
7795;SDS011;3942;51.518;6.912;2023-04-05T21:19:11;16.95;;;10.75;;
7795;SDS011;3942;51.518;6.912;2023-04-05T21:24:15;16.98;;;10.23;;
7795;SDS011;3942;51.518;6.912;2023-04-05T21:29:17;18.77;;;11.68;;
7795;SDS011;3942;51.518;6.912;2023-04-05T21:34:19;22.92;;;10.65;;
7795;SDS011;3942;51.518;6.912;2023-04-05T21:39:23;20.77;;;10.90;;
7795;SDS011;3942;51.518;6.912;2023-04-05T21:44:25;38.63;;;18.40;;
7795;SDS011;3942;51.518;6.912;2023-04-05T21:49:27;23.17;;;10.85;;
7795;SDS011;3942;51.518;6.912;2023-04-05T21:54:31;24.30;;;12.80;;
7795;SDS011;3942;51.518;6.912;2023-04-05T21:59:33;24.58;;;12.20;;
7795;SDS011;3942;51.518;6.912;2023-04-05T22:04:35;33.47;;;14.95;;
7795;SDS011;3942;51.518;6.912;2023-04-05T22:09:39;43.22;;;19.42;;
7795;SDS011;3942;51.518;6.912;2023-04-05T22:14:41;22.88;;;11.38;;
7795;SDS011;3942;51.518;6.912;2023-04-05T22:19:44;24.98;;;11.52;;
7795;SDS011;3942;51.518;6.912;2023-04-05T22:24:48;19.80;;;10.60;;
7795;SDS011;3942;51.518;6.912;2023-04-05T22:29:50;18.83;;;11.10;;
7795;SDS011;3942;51.518;6.912;2023-04-05T22:34:53;23.17;;;10.15;;
7795;SDS011;3942;51.518;6.912;2023-04-05T22:39:57;18.92;;;10.43;;
7795;SDS011;3942;51.518;6.912;2023-04-05T22:44:59;16.90;;;9.32;;
7795;SDS011;3942;51.518;6.912;2023-04-05T22:50:02;18.10;;;9.73;;
7795;SDS011;3942;51.518;6.912;2023-04-05T22:55:07;18.45;;;9.98;;
7795;SDS011;3942;51.518;6.912;2023-04-05T23:00:10;20.92;;;10.23;;
7795;SDS011;3942;51.518;6.912;2023-04-05T23:05:12;22.80;;;9.90;;
7795;SDS011;3942;51.518;6.912;2023-04-05T23:10:16;17.42;;;8.73;;
7795;SDS011;3942;51.518;6.912;2023-04-05T23:15:18;18.55;;;8.35;;
7795;SDS011;3942;51.518;6.912;2023-04-05T23:20:21;13.35;;;8.40;;
7795;SDS011;3942;51.518;6.912;2023-04-05T23:25:25;14.32;;;8.30;;
7795;SDS011;3942;51.518;6.912;2023-04-05T23:30:27;16.42;;;9.05;;
7795;SDS011;3942;51.518;6.912;2023-04-05T23:35:29;18.40;;;9.00;;
7795;SDS011;3942;51.518;6.912;2023-04-05T23:40:33;19.58;;;10.23;;
7795;SDS011;3942;51.518;6.912;2023-04-05T23:45:35;21.02;;;9.93;;
7795;SDS011;3942;51.518;6.912;2023-04-05T23:50:37;20.02;;;10.20;;
7795;SDS011;3942;51.518;6.912;2023-04-05T23:55:41;18.98;;;10.45;;
